map of POI home
POI - Airport
Location
City:  Potosí, Tomás Frías, Potosí, Bolivia
Name:Capitán Nicolás Rojas
ICAO:SLPO
IATA:POI

Details
Type:Airport (Aerodrome, Airfield)
Latitude:19°32'35"S (-19.543068)
Longitude:65°43'25"W (-65.723705)
Datum:WGS 1984
Elevation:12913 ft (3936 m)
Variation:9.44°W (WMM2015v2 magnetic declination)
-0.21° annual change
Runways:1
Longest:9295 × 98 ft (2833 × 30 m), paved

Time
Time Zone:UTC-4
Local Time:

Weather
METAR:SLPO 041400Z 06005KT 8000 SCT005 SCT010 BKN070 11/07 Q1042

Related Locations
Nearby:
Farthest:ZUH: 12252 mi / 19718 km
Zhuhai (Sanzao, Shanzhou) [Intl], 44, CN

Find:

   beyond  
but within

Other Information
Maps:
NOTAMs:
Links:
Sources:

  
  • flag of Bolivia
  • flag of Potosí
  

Sectional Chart

Flight Planning
at skyvector.com

Satellite Image

Google Maps Satellite view

 

Copyright © 2004-2019 Karl L. Swartz. All rights reserved.
The Great Circle Mapper name and logo are trademarks of the Great Circle Mapper.
All other trademarks mentioned herein belong to their respective owners.
Please see credits for attibutions and further copyright information.

  Follow gcmap on Facebook Follow gcmap on Twitter GCmap on LinkedIn

hCard Microformat

Geo Microformat